Terminal Aerodrome Forecast
Issued by NWS Bismarck, ND

Home | Current Version | Previous Version | Graphics & Text | Print | Product List | Glossary On
Versions: 1 2 3 4 5 6 7 8 9 10 11 12 13 14 15 16 17 18
000
FTUS43 KBIS 230526
TAFBIS
TAF
KBIS 230526Z 2306/2406 16015G25KT P6SM -TSRA BKN040 OVC070CB
      TEMPO 2306/2307 3SM TSRA OVC035CB
     FM230900 10010G16KT P6SM VCTS BKN090CB
     FM231300 11010G17KT P6SM SHRA VCTS BKN050CB OVC090
     FM231600 28009KT P6SM SCT100
     FM232100 29013KT P6SM SKC
     FM240200 29008KT P6SM SKC=

USA.gov is the U.S. government's official web portal to all federal, state and local government web resources and services.